KDRA/DRA METAR and TAF weather

Enter ICAO airport designator
Station Type Date Time Source
KDRA METAR 2018/10/22 15:56 UTC NOAA

KDRA 221556Z AUTO 05009KT 10SM CLR 17/08 A3002 RMK AO2 SLP133 T01720078


Station Type Date Time Source
KDRA Decoded METAR 2018/10/22 15:56 UTC NOAA

DESERT ROCK AIRPORT, NV, United States (KDRA) 36-38N 116-02W 1006M
Oct 22, 2018 - 11:56 AM EDT / 2018.10.22 1556 UTC
Wind: from the NE (050 degrees) at 10 MPH (9 KT):0
Visibility: 10 mile(s):0
Sky conditions: clear
Temperature: 63.0 F (17.2 C)
Dew Point: 46.0 F (7.8 C)
Relative Humidity: 53%
Pressure (altimeter): 30.02 in. Hg (1016 hPa)
ob: KDRA 221556Z AUTO 05009KT 10SM CLR 17/08 A3002 RMK AO2 SLP133 T01720078
cycle: 16

Station Type Date Time Source
KDRA TAF 2011/12/07 06:36 UTC NOAA

TAF KDRA 070532Z 0706/0806 VRB04KT P6SM SKC


Example: see airport list